createdAt,value
2024-05-09T00:02:11.128Z,15.4
2024-05-09T00:07:33.489Z,15.4
2024-05-09T00:13:07.197Z,15.3
2024-05-09T00:18:15.767Z,15.3
2024-05-09T00:23:50.946Z,15.3
2024-05-09T00:29:15.463Z,15.2
2024-05-09T00:34:53.627Z,15.1
2024-05-09T00:40:18.731Z,15
2024-05-09T00:45:52.882Z,14.9
2024-05-09T00:51:28.110Z,14.9
2024-05-09T00:56:34.814Z,14.8
2024-05-09T01:02:12.006Z,14.7
2024-05-09T01:07:36.005Z,14.7
2024-05-09T01:13:12.206Z,14.7
2024-05-09T01:18:35.239Z,14.6
2024-05-09T01:24:11.154Z,14.6
2024-05-09T01:29:48.942Z,14.6
2024-05-09T01:35:40.204Z,14.6
2024-05-09T01:41:29.680Z,14.6
2024-05-09T01:46:52.344Z,14.5
2024-05-09T01:52:25.623Z,14.4
2024-05-09T01:57:48.404Z,14.4
2024-05-09T02:03:43.088Z,14.3
2024-05-09T02:09:07.580Z,14.3
2024-05-09T02:14:24.221Z,14.3
2024-05-09T02:20:02.749Z,14.2
2024-05-09T02:25:54.007Z,14.1
2024-05-09T02:31:15.241Z,14.1
2024-05-09T02:36:56.447Z,14.1
2024-05-09T02:42:43.052Z,14.1
2024-05-09T02:48:21.457Z,14.1
2024-05-09T02:54:11.969Z,14.1
2024-05-09T02:59:47.921Z,14.1
2024-05-09T03:05:41.574Z,14.1
2024-05-09T03:11:30.171Z,14.1
2024-05-09T03:17:12.916Z,14
2024-05-09T03:23:00.226Z,14
2024-05-09T03:28:21.742Z,13.9
2024-05-09T03:33:59.254Z,13.8
2024-05-09T03:39:37.978Z,13.8
2024-05-09T03:45:25.098Z,13.9
2024-05-09T03:51:15.931Z,13.9
2024-05-09T03:56:53.952Z,13.9
2024-05-09T04:02:41.924Z,13.9
2024-05-09T04:08:20.797Z,14.1
2024-05-09T04:14:11.276Z,14.1
2024-05-09T04:19:49.538Z,14.4
2024-05-09T04:25:40.367Z,14.4
2024-05-09T04:31:31.800Z,14.5
2024-05-09T04:37:17.173Z,14.6
2024-05-09T04:43:07.159Z,14.7
2024-05-09T04:48:46.897Z,14.7
2024-05-09T04:54:50.586Z,14.8
2024-05-09T05:00:36.224Z,14.9
2024-05-09T05:06:19.896Z,14.8
2024-05-09T05:12:06.719Z,14.7
2024-05-09T05:17:44.023Z,14.8
2024-05-09T05:23:22.307Z,14.8
2024-05-09T05:28:59.323Z,14.9
2024-05-09T05:34:50.110Z,15
2024-05-09T05:40:38.249Z,15.1
2024-05-09T05:46:17.449Z,15.2
2024-05-09T05:52:11.462Z,15.1
2024-05-09T05:57:50.003Z,15.1
2024-05-09T06:03:46.280Z,15.4
2024-05-09T06:09:26.329Z,15.6
2024-05-09T06:15:14.698Z,15.6
2024-05-09T06:21:03.683Z,15.9
2024-05-09T06:26:43.438Z,16
2024-05-09T06:32:33.478Z,16
2024-05-09T06:38:12.052Z,16.1
2024-05-09T06:44:02.867Z,16.1
2024-05-09T06:49:42.115Z,16.3
2024-05-09T06:55:28.367Z,16.2
2024-05-09T07:01:18.386Z,16.6
2024-05-09T07:07:02.415Z,16.8
2024-05-09T07:12:51.209Z,16.9
2024-05-09T07:18:28.489Z,16.9
2024-05-09T07:24:04.006Z,16.9
2024-05-09T07:29:41.434Z,16.9
2024-05-09T07:35:28.739Z,17.2
2024-05-09T07:41:19.118Z,17.1
2024-05-09T07:52:23.061Z,17.1
2024-05-09T07:59:17.886Z,17.3
2024-05-09T08:05:05.992Z,17.5
2024-05-09T08:10:57.652Z,17.4
2024-05-09T08:16:36.084Z,17.3
2024-05-09T08:22:28.158Z,16.9
2024-05-09T08:27:50.633Z,16.6
2024-05-09T08:33:43.964Z,16.1
2024-05-09T08:39:39.742Z,15.2
2024-05-09T08:45:30.682Z,14.9
2024-05-09T08:51:25.922Z,14.6
2024-05-09T08:57:02.643Z,14.4
2024-05-09T09:02:55.274Z,14.4
2024-05-09T09:08:35.522Z,14.2
2024-05-09T09:14:10.947Z,13.9
2024-05-09T09:19:49.707Z,13.9
2024-05-09T09:25:41.254Z,14
2024-05-09T09:31:38.486Z,14.3
2024-05-09T09:37:03.171Z,14.5
2024-05-09T09:42:51.838Z,14.6
2024-05-09T09:48:40.687Z,14.7
2024-05-09T09:54:16.633Z,14.8
2024-05-09T09:59:42.517Z,14.9
2024-05-09T10:05:15.081Z,15.1
2024-05-09T10:11:03.450Z,15.7
2024-05-09T10:16:51.570Z,15.6
2024-05-09T10:22:43.122Z,15.8
2024-05-09T10:28:04.115Z,16.1
2024-05-09T10:33:53.984Z,16.3
2024-05-09T10:39:32.559Z,16.2
2024-05-09T10:45:23.079Z,16
2024-05-09T10:50:58.465Z,15.9
2024-05-09T10:56:35.363Z,16.1
2024-05-09T11:02:22.811Z,16.2
2024-05-09T11:08:03.157Z,16.8
2024-05-09T11:13:45.178Z,17.1
2024-05-09T11:19:27.401Z,16.9
2024-05-09T11:25:18.094Z,17.2
2024-05-09T11:31:04.730Z,17.8
2024-05-09T11:36:42.722Z,17.8
2024-05-09T11:42:35.647Z,18
2024-05-09T11:48:14.616Z,18.6
2024-05-09T11:54:04.458Z,18.9
2024-05-09T12:05:19.984Z,18.5
2024-05-09T12:11:08.350Z,18.4
2024-05-09T12:16:48.782Z,17.9
2024-05-09T12:22:42.943Z,18.5
2024-05-09T12:33:55.496Z,18.6
2024-05-09T12:45:19.493Z,18.9
2024-05-09T12:51:15.186Z,18.9
2024-05-09T12:57:03.028Z,18.3
2024-05-09T13:02:51.554Z,18.1
2024-05-09T13:08:34.696Z,17.8
2024-05-09T13:14:19.131Z,18
2024-05-09T13:19:58.403Z,18
2024-05-09T13:25:47.854Z,17.8
2024-05-09T13:31:41.807Z,17.4
2024-05-09T13:37:04.811Z,16.6
2024-05-09T13:42:36.365Z,16.6
2024-05-09T13:48:14.806Z,16.4
2024-05-09T13:53:47.251Z,16.4
2024-05-09T13:59:28.191Z,15.9
2024-05-09T14:05:08.411Z,15.8
2024-05-09T14:10:58.502Z,15.3
2024-05-09T14:16:21.197Z,14.9
2024-05-09T14:22:11.792Z,15
2024-05-09T14:27:53.490Z,14.7
2024-05-09T14:33:42.561Z,14.6
2024-05-09T14:39:24.339Z,14.4
2024-05-09T14:45:20.370Z,14.3
2024-05-09T14:51:11.757Z,14.1
2024-05-09T14:56:55.979Z,14
2024-05-09T15:02:50.092Z,14
2024-05-09T15:08:29.924Z,13.9
2024-05-09T15:14:23.078Z,13.6
2024-05-09T15:20:01.330Z,13.6
2024-05-09T15:25:50.561Z,13.1
2024-05-09T15:31:37.421Z,13.1
2024-05-09T15:37:16.357Z,13
2024-05-09T15:43:08.007Z,12.9
2024-05-09T15:48:46.450Z,12.8
2024-05-09T15:54:40.825Z,12.6
2024-05-09T16:00:21.777Z,12.6
2024-05-09T16:06:11.883Z,12.6
2024-05-09T16:11:58.794Z,12.6
2024-05-09T16:17:37.682Z,12.5
2024-05-09T16:23:32.488Z,12.4
2024-05-09T16:29:09.239Z,12.2
2024-05-09T16:34:58.528Z,12.2
2024-05-09T16:40:53.550Z,12.1
2024-05-09T16:46:31.974Z,12
2024-05-09T16:52:17.070Z,11.9
2024-05-09T16:57:55.612Z,12
2024-05-09T17:03:52.591Z,12
2024-05-09T17:09:41.635Z,11.9
2024-05-09T17:15:33.378Z,11.8
2024-05-09T17:21:23.486Z,11.8
2024-05-09T17:27:01.584Z,11.8
2024-05-09T17:32:50.019Z,11.6
2024-05-09T17:38:29.007Z,11.6
2024-05-09T17:44:04.042Z,11.6
2024-05-09T17:49:42.986Z,11.5
2024-05-09T17:55:30.836Z,11.4
2024-05-09T18:01:28.918Z,11.4
2024-05-09T18:07:12.618Z,11.4
2024-05-09T18:12:58.815Z,11.3
2024-05-09T18:18:21.888Z,11.2
2024-05-09T18:24:16.798Z,11.2
2024-05-09T18:29:54.989Z,11.1
2024-05-09T18:35:45.793Z,11.1
2024-05-09T18:41:38.174Z,10.9
2024-05-09T18:47:24.356Z,10.8
2024-05-09T18:53:17.015Z,10.6
2024-05-09T18:58:54.184Z,10.6
2024-05-09T19:04:52.893Z,10.3
2024-05-09T19:10:42.709Z,10.4
2024-05-09T19:16:23.530Z,10.4
2024-05-09T19:22:15.874Z,10.4
2024-05-09T19:28:02.808Z,10.4
2024-05-09T19:33:53.915Z,10.4
2024-05-09T19:39:31.043Z,10.4
2024-05-09T19:45:21.635Z,10.4
2024-05-09T19:51:16.364Z,10.4
2024-05-09T19:56:54.385Z,10.4
2024-05-09T20:02:47.437Z,10.4
2024-05-09T20:08:27.656Z,10.3
2024-05-09T20:14:15.979Z,10.3
2024-05-09T20:19:40.388Z,10.3
2024-05-09T20:25:31.877Z,10.3
2024-05-09T20:31:19.298Z,10.2
2024-05-09T20:36:57.618Z,10.2
2024-05-09T20:42:46.224Z,10.1
2024-05-09T20:48:23.207Z,10.1
2024-05-09T20:54:15.010Z,10.1
2024-05-09T20:59:52.794Z,10.2
2024-05-09T21:05:51.796Z,10.2
2024-05-09T21:11:33.832Z,10.3
2024-05-09T21:17:11.814Z,10.3
2024-05-09T21:22:53.857Z,10.3
2024-05-09T21:28:31.474Z,10.3
2024-05-09T21:34:09.576Z,10.4
2024-05-09T21:39:46.247Z,10.3
2024-05-09T21:45:36.324Z,10.3
2024-05-09T21:51:26.920Z,10.2
2024-05-09T21:57:03.620Z,10.2
2024-05-09T22:02:55.322Z,10.3
2024-05-09T22:08:35.556Z,10.2
2024-05-09T22:14:28.647Z,10.2
2024-05-09T22:20:11.629Z,10.2
2024-05-09T22:26:02.578Z,10.2
2024-05-09T22:31:46.878Z,10.1
2024-05-09T22:37:31.219Z,10.1
2024-05-09T22:43:25.492Z,10.1
2024-05-09T22:49:03.498Z,10.1
2024-05-09T22:54:33.293Z,10.1
2024-05-09T23:00:15.365Z,10.1
2024-05-09T23:06:00.238Z,10.1
2024-05-09T23:11:46.178Z,10.1
2024-05-09T23:17:24.985Z,10.1
2024-05-09T23:23:13.247Z,10.1
2024-05-09T23:28:51.367Z,10
2024-05-09T23:34:43.472Z,10
2024-05-09T23:40:30.741Z,10
2024-05-09T23:46:15.606Z,9.9
2024-05-09T23:52:08.266Z,9.9
2024-05-09T23:57:44.762Z,9.9
